sensor_id;sensor_type;location;lat;lon;timestamp;pressure;altitude;pressure_sealevel;temperature;humidity
13593;BME280;6867;50.998;4.250;2022-12-18T00:02:04;102271.78;;;-4.30;75.50
13593;BME280;6867;50.998;4.250;2022-12-18T00:04:30;102258.56;;;-4.28;74.99
13593;BME280;6867;50.998;4.250;2022-12-18T00:06:58;102253.19;;;-4.25;74.99
13593;BME280;6867;50.998;4.250;2022-12-18T00:09:25;102249.78;;;-4.27;75.02
13593;BME280;6867;50.998;4.250;2022-12-18T00:11:52;102236.03;;;-4.32;74.71
13593;BME280;6867;50.998;4.250;2022-12-18T00:14:18;102232.88;;;-4.39;75.07
13593;BME280;6867;50.998;4.250;2022-12-18T00:16:46;102219.81;;;-4.40;75.07
13593;BME280;6867;50.998;4.250;2022-12-18T00:19:13;102207.03;;;-4.46;74.60
13593;BME280;6867;50.998;4.250;2022-12-18T00:21:41;102202.91;;;-4.52;74.44
13593;BME280;6867;50.998;4.250;2022-12-18T00:24:09;102193.34;;;-4.53;74.45
13593;BME280;6867;50.998;4.250;2022-12-18T00:26:38;102179.38;;;-4.54;74.21
13593;BME280;6867;50.998;4.250;2022-12-18T00:29:06;102180.47;;;-4.58;74.47
13593;BME280;6867;50.998;4.250;2022-12-18T00:31:33;102174.28;;;-4.57;74.29
13593;BME280;6867;50.998;4.250;2022-12-18T00:34:01;102200.50;;;-4.57;74.54
13593;BME280;6867;50.998;4.250;2022-12-18T00:36:29;102175.06;;;-4.55;73.97
13593;BME280;6867;50.998;4.250;2022-12-18T00:38:57;102166.50;;;-4.58;74.22
13593;BME280;6867;50.998;4.250;2022-12-18T00:41:26;102196.44;;;-4.62;74.71
13593;BME280;6867;50.998;4.250;2022-12-18T00:44:12;102189.72;;;-4.68;74.73
13593;BME280;6867;50.998;4.250;2022-12-18T00:46:39;102188.94;;;-4.70;74.83
13593;BME280;6867;50.998;4.250;2022-12-18T00:49:06;102178.53;;;-4.71;74.52
13593;BME280;6867;50.998;4.250;2022-12-18T00:51:33;102187.50;;;-4.77;74.93
13593;BME280;6867;50.998;4.250;2022-12-18T00:54:00;102184.75;;;-4.74;75.02
13593;BME280;6867;50.998;4.250;2022-12-18T00:56:28;102187.16;;;-4.69;74.80
13593;BME280;6867;50.998;4.250;2022-12-18T00:58:54;102175.19;;;-4.75;74.51
13593;BME280;6867;50.998;4.250;2022-12-18T01:01:21;102169.81;;;-4.72;74.48
13593;BME280;6867;50.998;4.250;2022-12-18T01:03:48;102166.25;;;-4.71;74.74
13593;BME280;6867;50.998;4.250;2022-12-18T01:06:15;102166.53;;;-4.77;74.06
13593;BME280;6867;50.998;4.250;2022-12-18T01:08:43;102161.63;;;-4.83;74.70
13593;BME280;6867;50.998;4.250;2022-12-18T01:11:10;102176.56;;;-4.85;74.56
13593;BME280;6867;50.998;4.250;2022-12-18T01:13:39;102202.56;;;-4.81;75.16
13593;BME280;6867;50.998;4.250;2022-12-18T01:16:07;102194.47;;;-4.76;74.74
13593;BME280;6867;50.998;4.250;2022-12-18T01:18:34;102184.91;;;-4.77;74.98
13593;BME280;6867;50.998;4.250;2022-12-18T01:21:05;102186.34;;;-4.89;74.93
13593;BME280;6867;50.998;4.250;2022-12-18T01:23:32;102201.44;;;-4.94;75.13
13593;BME280;6867;50.998;4.250;2022-12-18T01:26:04;102206.75;;;-4.95;75.97
13593;BME280;6867;50.998;4.250;2022-12-18T01:28:31;102208.31;;;-4.91;75.42
13593;BME280;6867;50.998;4.250;2022-12-18T01:31:09;102208.00;;;-4.85;75.64
13593;BME280;6867;50.998;4.250;2022-12-18T01:33:35;102203.69;;;-4.86;75.46
13593;BME280;6867;50.998;4.250;2022-12-18T01:36:02;102213.19;;;-4.84;75.90
13593;BME280;6867;50.998;4.250;2022-12-18T01:38:29;102217.41;;;-4.81;75.57
13593;BME280;6867;50.998;4.250;2022-12-18T01:40:57;102201.28;;;-4.72;75.28
13593;BME280;6867;50.998;4.250;2022-12-18T01:43:42;102184.66;;;-4.72;74.77
13593;BME280;6867;50.998;4.250;2022-12-18T01:46:11;102167.34;;;-4.75;74.51
13593;BME280;6867;50.998;4.250;2022-12-18T01:48:38;102164.31;;;-4.85;74.25
13593;BME280;6867;50.998;4.250;2022-12-18T01:51:06;102154.81;;;-4.87;74.50
13593;BME280;6867;50.998;4.250;2022-12-18T01:53:35;102147.19;;;-4.92;74.12
13593;BME280;6867;50.998;4.250;2022-12-18T01:56:03;102142.44;;;-5.03;73.62
13593;BME280;6867;50.998;4.250;2022-12-18T01:58:35;102155.53;;;-5.03;73.85
13593;BME280;6867;50.998;4.250;2022-12-18T02:01:05;102148.75;;;-5.07;73.98
13593;BME280;6867;50.998;4.250;2022-12-18T02:03:33;102147.91;;;-5.07;73.75
13593;BME280;6867;50.998;4.250;2022-12-18T02:06:07;102150.75;;;-5.12;73.70
13593;BME280;6867;50.998;4.250;2022-12-18T02:08:43;102165.53;;;-5.11;74.08
13593;BME280;6867;50.998;4.250;2022-12-18T02:11:18;102158.63;;;-5.12;73.96
13593;BME280;6867;50.998;4.250;2022-12-18T02:13:53;102149.81;;;-5.11;74.14
13593;BME280;6867;50.998;4.250;2022-12-18T02:16:27;102141.06;;;-5.10;73.99
13593;BME280;6867;50.998;4.250;2022-12-18T02:18:59;102147.84;;;-5.06;73.65
13593;BME280;6867;50.998;4.250;2022-12-18T02:21:34;102140.97;;;-5.08;73.69
13593;BME280;6867;50.998;4.250;2022-12-18T02:24:17;102135.97;;;-5.13;74.17
13593;BME280;6867;50.998;4.250;2022-12-18T02:26:50;102142.31;;;-5.18;74.66
13593;BME280;6867;50.998;4.250;2022-12-18T02:29:20;102155.06;;;-5.11;74.70
13593;BME280;6867;50.998;4.250;2022-12-18T02:31:51;102152.22;;;-5.06;74.60
13593;BME280;6867;50.998;4.250;2022-12-18T02:34:21;102136.59;;;-5.08;74.10
13593;BME280;6867;50.998;4.250;2022-12-18T02:36:51;102132.53;;;-5.15;74.32
13593;BME280;6867;50.998;4.250;2022-12-18T02:39:21;102140.28;;;-5.12;74.71
13593;BME280;6867;50.998;4.250;2022-12-18T02:41:50;102123.34;;;-5.05;74.14
13593;BME280;6867;50.998;4.250;2022-12-18T02:44:17;102113.31;;;-5.14;74.22
13593;BME280;6867;50.998;4.250;2022-12-18T02:46:46;102107.97;;;-5.12;73.81
13593;BME280;6867;50.998;4.250;2022-12-18T02:49:28;102121.31;;;-5.17;73.80
13593;BME280;6867;50.998;4.250;2022-12-18T02:52:05;102117.28;;;-5.24;73.96
13593;BME280;6867;50.998;4.250;2022-12-18T02:54:45;102130.16;;;-5.19;74.71
13593;BME280;6867;50.998;4.250;2022-12-18T02:57:21;102112.59;;;-5.17;74.57
13593;BME280;6867;50.998;4.250;2022-12-18T02:59:57;102099.28;;;-5.32;74.80
13593;BME280;6867;50.998;4.250;2022-12-18T03:02:27;102105.25;;;-5.28;74.05
13593;BME280;6867;50.998;4.250;2022-12-18T03:05:01;102113.09;;;-5.28;74.16
13593;BME280;6867;50.998;4.250;2022-12-18T03:07:36;102109.41;;;-5.24;74.33
13593;BME280;6867;50.998;4.250;2022-12-18T03:10:06;102111.19;;;-5.24;74.48
13593;BME280;6867;50.998;4.250;2022-12-18T03:12:40;102098.19;;;-5.26;74.05
13593;BME280;6867;50.998;4.250;2022-12-18T03:15:13;102100.78;;;-5.26;74.32
13593;BME280;6867;50.998;4.250;2022-12-18T03:17:44;102111.28;;;-5.26;74.42
13593;BME280;6867;50.998;4.250;2022-12-18T03:20:17;102117.34;;;-5.26;74.69
13593;BME280;6867;50.998;4.250;2022-12-18T03:22:49;102112.47;;;-5.33;74.82
13593;BME280;6867;50.998;4.250;2022-12-18T03:25:18;102117.56;;;-5.30;74.72
13593;BME280;6867;50.998;4.250;2022-12-18T03:27:49;102117.56;;;-5.30;74.43
13593;BME280;6867;50.998;4.250;2022-12-18T03:30:18;102094.59;;;-5.42;73.41
13593;BME280;6867;50.998;4.250;2022-12-18T03:32:47;102087.09;;;-5.50;74.03
13593;BME280;6867;50.998;4.250;2022-12-18T03:35:18;102077.03;;;-5.59;73.94
13593;BME280;6867;50.998;4.250;2022-12-18T03:37:47;102063.59;;;-5.70;73.31
13593;BME280;6867;50.998;4.250;2022-12-18T03:40:14;102067.50;;;-5.79;73.31
13593;BME280;6867;50.998;4.250;2022-12-18T03:42:47;102071.66;;;-5.75;73.72
13593;BME280;6867;50.998;4.250;2022-12-18T03:45:20;102041.44;;;-5.82;73.67
13593;BME280;6867;50.998;4.250;2022-12-18T03:47:56;102032.22;;;-5.89;73.15
13593;BME280;6867;50.998;4.250;2022-12-18T03:50:29;102031.34;;;-5.90;72.69
13593;BME280;6867;50.998;4.250;2022-12-18T03:53:02;102035.00;;;-5.92;73.98
13593;BME280;6867;50.998;4.250;2022-12-18T03:55:33;102041.22;;;-5.78;73.72
13593;BME280;6867;50.998;4.250;2022-12-18T03:58:03;102043.59;;;-5.71;73.23
13593;BME280;6867;50.998;4.250;2022-12-18T04:00:32;102048.88;;;-5.73;73.70
13593;BME280;6867;50.998;4.250;2022-12-18T04:03:01;102051.22;;;-5.67;74.10
13593;BME280;6867;50.998;4.250;2022-12-18T04:05:29;102046.81;;;-5.66;73.75
13593;BME280;6867;50.998;4.250;2022-12-18T04:07:57;102041.69;;;-5.68;73.25
13593;BME280;6867;50.998;4.250;2022-12-18T04:10:24;102044.44;;;-5.71;73.29
13593;BME280;6867;50.998;4.250;2022-12-18T04:12:50;102037.84;;;-5.80;72.78
13593;BME280;6867;50.998;4.250;2022-12-18T04:15:19;102024.53;;;-5.92;72.60
13593;BME280;6867;50.998;4.250;2022-12-18T04:17:48;102015.25;;;-5.99;72.78
13593;BME280;6867;50.998;4.250;2022-12-18T04:20:16;102014.75;;;-6.08;72.38
13593;BME280;6867;50.998;4.250;2022-12-18T04:22:43;102002.88;;;-6.15;72.66
13593;BME280;6867;50.998;4.250;2022-12-18T04:25:09;102005.63;;;-6.18;72.17
13593;BME280;6867;50.998;4.250;2022-12-18T04:27:36;102010.16;;;-6.21;71.71
13593;BME280;6867;50.998;4.250;2022-12-18T04:30:03;102008.59;;;-6.25;71.88
13593;BME280;6867;50.998;4.250;2022-12-18T04:32:33;102007.81;;;-6.28;72.04
13593;BME280;6867;50.998;4.250;2022-12-18T04:34:59;101997.56;;;-6.32;72.51
13593;BME280;6867;50.998;4.250;2022-12-18T04:37:26;101989.91;;;-6.37;71.98
13593;BME280;6867;50.998;4.250;2022-12-18T04:39:53;101987.38;;;-6.38;72.18
13593;BME280;6867;50.998;4.250;2022-12-18T04:42:20;101996.06;;;-6.38;72.15
13593;BME280;6867;50.998;4.250;2022-12-18T04:44:46;101990.00;;;-6.38;72.06
13593;BME280;6867;50.998;4.250;2022-12-18T04:47:13;101976.94;;;-6.38;71.75
13593;BME280;6867;50.998;4.250;2022-12-18T04:49:41;101991.47;;;-6.33;72.23
13593;BME280;6867;50.998;4.250;2022-12-18T04:52:08;101998.34;;;-6.30;71.71
13593;BME280;6867;50.998;4.250;2022-12-18T04:54:34;101993.88;;;-6.28;71.33
13593;BME280;6867;50.998;4.250;2022-12-18T04:57:01;101992.06;;;-6.26;72.15
13593;BME280;6867;50.998;4.250;2022-12-18T04:59:28;101981.44;;;-6.23;71.57
13593;BME280;6867;50.998;4.250;2022-12-18T05:01:55;101984.97;;;-6.24;71.83
13593;BME280;6867;50.998;4.250;2022-12-18T05:04:21;101984.25;;;-6.28;71.32
13593;BME280;6867;50.998;4.250;2022-12-18T05:06:49;101980.03;;;-6.30;71.71
13593;BME280;6867;50.998;4.250;2022-12-18T05:09:16;101973.97;;;-6.31;72.01
13593;BME280;6867;50.998;4.250;2022-12-18T05:11:42;101984.84;;;-6.21;71.35
13593;BME280;6867;50.998;4.250;2022-12-18T05:14:09;101981.94;;;-6.15;71.47
13593;BME280;6867;50.998;4.250;2022-12-18T05:16:36;101980.03;;;-6.11;71.90
13593;BME280;6867;50.998;4.250;2022-12-18T05:19:02;101981.66;;;-6.09;71.96
13593;BME280;6867;50.998;4.250;2022-12-18T05:21:29;101995.69;;;-6.10;72.10
13593;BME280;6867;50.998;4.250;2022-12-18T05:23:57;102015.03;;;-6.14;73.00
13593;BME280;6867;50.998;4.250;2022-12-18T05:26:24;102006.28;;;-6.13;72.48
13593;BME280;6867;50.998;4.250;2022-12-18T05:28:51;102025.44;;;-6.12;73.09
13593;BME280;6867;50.998;4.250;2022-12-18T05:31:17;102031.06;;;-6.03;73.28
13593;BME280;6867;50.998;4.250;2022-12-18T05:33:44;102017.16;;;-6.03;73.10
13593;BME280;6867;50.998;4.250;2022-12-18T05:36:11;102018.84;;;-6.02;72.38
13593;BME280;6867;50.998;4.250;2022-12-18T05:38:38;102028.53;;;-6.04;72.97
13593;BME280;6867;50.998;4.250;2022-12-18T05:41:07;102034.91;;;-6.10;73.04
13593;BME280;6867;50.998;4.250;2022-12-18T05:43:35;102031.03;;;-6.01;73.50
13593;BME280;6867;50.998;4.250;2022-12-18T05:46:06;102007.75;;;-6.07;72.94
13593;BME280;6867;50.998;4.250;2022-12-18T05:48:33;101997.44;;;-6.10;72.44
13593;BME280;6867;50.998;4.250;2022-12-18T05:51:05;101992.41;;;-6.15;72.03
13593;BME280;6867;50.998;4.250;2022-12-18T05:53:33;101989.09;;;-6.18;72.38
13593;BME280;6867;50.998;4.250;2022-12-18T05:56:01;101978.91;;;-6.24;71.89
13593;BME280;6867;50.998;4.250;2022-12-18T05:58:30;101984.34;;;-6.29;72.23
13593;BME280;6867;50.998;4.250;2022-12-18T06:00:57;101992.31;;;-6.32;71.67
13593;BME280;6867;50.998;4.250;2022-12-18T06:03:24;101980.50;;;-6.41;71.50
13593;BME280;6867;50.998;4.250;2022-12-18T06:05:51;101975.06;;;-6.36;71.29
13593;BME280;6867;50.998;4.250;2022-12-18T06:08:18;101957.28;;;-6.47;71.85
13593;BME280;6867;50.998;4.250;2022-12-18T06:10:50;101951.13;;;-6.46;71.82
13593;BME280;6867;50.998;4.250;2022-12-18T06:13:19;101952.03;;;-6.47;71.17
13593;BME280;6867;50.998;4.250;2022-12-18T06:15:48;101953.72;;;-6.46;71.69
13593;BME280;6867;50.998;4.250;2022-12-18T06:18:14;101953.72;;;-6.46;71.09
13593;BME280;6867;50.998;4.250;2022-12-18T06:20:41;101953.53;;;-6.41;71.26
13593;BME280;6867;50.998;4.250;2022-12-18T06:23:08;101962.78;;;-6.34;71.54
13593;BME280;6867;50.998;4.250;2022-12-18T06:25:37;101991.13;;;-6.25;71.68
13593;BME280;6867;50.998;4.250;2022-12-18T06:28:04;102021.47;;;-6.21;72.33
13593;BME280;6867;50.998;4.250;2022-12-18T06:30:31;102015.81;;;-6.12;72.54
13593;BME280;6867;50.998;4.250;2022-12-18T06:32:59;102000.81;;;-6.08;72.25
13593;BME280;6867;50.998;4.250;2022-12-18T06:35:26;102002.50;;;-6.07;72.07
13593;BME280;6867;50.998;4.250;2022-12-18T06:37:52;101992.06;;;-6.07;72.42
13593;BME280;6867;50.998;4.250;2022-12-18T06:40:19;101985.03;;;-6.07;72.35
13593;BME280;6867;50.998;4.250;2022-12-18T06:42:46;101991.78;;;-6.01;71.90
13593;BME280;6867;50.998;4.250;2022-12-18T06:45:15;101984.66;;;-5.97;71.87
13593;BME280;6867;50.998;4.250;2022-12-18T06:47:42;101977.63;;;-5.97;72.05
13593;BME280;6867;50.998;4.250;2022-12-18T06:50:11;101972.25;;;-5.94;72.21
13593;BME280;6867;50.998;4.250;2022-12-18T06:52:37;101984.44;;;-5.93;72.47
13593;BME280;6867;50.998;4.250;2022-12-18T06:55:08;101987.88;;;-5.92;73.16
13593;BME280;6867;50.998;4.250;2022-12-18T06:57:35;101980.72;;;-5.89;72.87
13593;BME280;6867;50.998;4.250;2022-12-18T07:00:03;101986.63;;;-5.85;72.46
13593;BME280;6867;50.998;4.250;2022-12-18T07:02:30;101968.78;;;-5.77;72.99
13593;BME280;6867;50.998;4.250;2022-12-18T07:04:57;101964.25;;;-5.73;72.86
13593;BME280;6867;50.998;4.250;2022-12-18T07:07:25;101959.81;;;-5.71;72.95
13593;BME280;6867;50.998;4.250;2022-12-18T07:09:51;101965.91;;;-5.71;72.78
13593;BME280;6867;50.998;4.250;2022-12-18T07:12:18;101970.81;;;-5.65;73.20
13593;BME280;6867;50.998;4.250;2022-12-18T07:14:45;101983.69;;;-5.60;72.80
13593;BME280;6867;50.998;4.250;2022-12-18T07:17:12;101983.78;;;-5.62;72.60
13593;BME280;6867;50.998;4.250;2022-12-18T07:19:38;101967.13;;;-5.61;72.63
13593;BME280;6867;50.998;4.250;2022-12-18T07:22:05;101967.31;;;-5.64;73.37
13593;BME280;6867;50.998;4.250;2022-12-18T07:24:33;101990.31;;;-5.70;73.18
13593;BME280;6867;50.998;4.250;2022-12-18T07:27:00;102006.50;;;-5.62;73.96
13593;BME280;6867;50.998;4.250;2022-12-18T07:29:27;102000.81;;;-5.53;73.65
13593;BME280;6867;50.998;4.250;2022-12-18T07:31:53;101983.31;;;-5.53;73.70
13593;BME280;6867;50.998;4.250;2022-12-18T07:34:20;101969.25;;;-5.50;73.44
13593;BME280;6867;50.998;4.250;2022-12-18T07:36:47;101967.63;;;-5.53;73.76
13593;BME280;6867;50.998;4.250;2022-12-18T07:39:14;101966.78;;;-5.53;73.10
13593;BME280;6867;50.998;4.250;2022-12-18T07:41:42;101971.88;;;-5.50;73.54
13593;BME280;6867;50.998;4.250;2022-12-18T07:44:11;101960.69;;;-5.54;73.11
13593;BME280;6867;50.998;4.250;2022-12-18T07:46:38;101966.63;;;-5.50;73.19
13593;BME280;6867;50.998;4.250;2022-12-18T07:49:05;101977.03;;;-5.48;74.07
13593;BME280;6867;50.998;4.250;2022-12-18T07:51:32;101968.19;;;-5.46;74.10
13593;BME280;6867;50.998;4.250;2022-12-18T07:53:59;101973.31;;;-5.44;73.98
13593;BME280;6867;50.998;4.250;2022-12-18T07:56:25;101980.13;;;-5.40;74.41
13593;BME280;6867;50.998;4.250;2022-12-18T07:58:54;101988.53;;;-5.34;74.27
13593;BME280;6867;50.998;4.250;2022-12-18T08:01:20;101967.97;;;-5.24;73.62
13593;BME280;6867;50.998;4.250;2022-12-18T08:03:47;101977.81;;;-5.29;73.69
13593;BME280;6867;50.998;4.250;2022-12-18T08:06:14;101994.00;;;-5.21;74.00
13593;BME280;6867;50.998;4.250;2022-12-18T08:08:41;101998.69;;;-5.28;74.94
13593;BME280;6867;50.998;4.250;2022-12-18T08:11:07;101983.44;;;-5.19;74.86
13593;BME280;6867;50.998;4.250;2022-12-18T08:13:34;101986.25;;;-5.05;74.46
13593;BME280;6867;50.998;4.250;2022-12-18T08:16:04;101995.78;;;-5.04;74.49
13593;BME280;6867;50.998;4.250;2022-12-18T08:18:33;102004.56;;;-4.88;74.40
13593;BME280;6867;50.998;4.250;2022-12-18T08:21:08;102005.09;;;-4.81;74.43
13593;BME280;6867;50.998;4.250;2022-12-18T08:23:35;102019.06;;;-4.81;75.08
13593;BME280;6867;50.998;4.250;2022-12-18T08:26:02;102018.97;;;-4.79;75.42
13593;BME280;6867;50.998;4.250;2022-12-18T08:28:28;102019.28;;;-4.68;75.00
13593;BME280;6867;50.998;4.250;2022-12-18T08:30:55;102034.53;;;-4.59;75.02
13593;BME280;6867;50.998;4.250;2022-12-18T08:33:23;102028.81;;;-4.49;75.52
13593;BME280;6867;50.998;4.250;2022-12-18T08:35:51;102027.59;;;-4.42;74.92
13593;BME280;6867;50.998;4.250;2022-12-18T08:38:17;102018.94;;;-4.44;75.13
13593;BME280;6867;50.998;4.250;2022-12-18T08:40:44;102036.69;;;-4.49;75.70
13593;BME280;6867;50.998;4.250;2022-12-18T08:43:11;102036.16;;;-4.23;75.49
13593;BME280;6867;50.998;4.250;2022-12-18T08:45:55;102034.66;;;-4.11;74.89
13593;BME280;6867;50.998;4.250;2022-12-18T08:48:23;102022.88;;;-4.20;75.10
13593;BME280;6867;50.998;4.250;2022-12-18T08:50:54;102028.72;;;-4.15;75.02
13593;BME280;6867;50.998;4.250;2022-12-18T08:53:21;102018.22;;;-4.15;74.87
13593;BME280;6867;50.998;4.250;2022-12-18T08:55:47;102031.66;;;-3.88;74.79
13593;BME280;6867;50.998;4.250;2022-12-18T08:58:14;102028.94;;;-3.86;74.94
13593;BME280;6867;50.998;4.250;2022-12-18T09:00:41;102036.50;;;-3.80;74.82
13593;BME280;6867;50.998;4.250;2022-12-18T09:03:11;102033.38;;;-3.71;74.78
13593;BME280;6867;50.998;4.250;2022-12-18T09:05:39;102037.69;;;-3.54;74.93
13593;BME280;6867;50.998;4.250;2022-12-18T09:08:06;102025.72;;;-3.60;74.70
13593;BME280;6867;50.998;4.250;2022-12-18T09:10:33;102024.63;;;-3.56;74.79
13593;BME280;6867;50.998;4.250;2022-12-18T09:13:00;102027.75;;;-3.49;75.11
13593;BME280;6867;50.998;4.250;2022-12-18T09:15:26;102017.41;;;-3.68;74.46
13593;BME280;6867;50.998;4.250;2022-12-18T09:17:53;102036.16;;;-3.42;75.09
13593;BME280;6867;50.998;4.250;2022-12-18T09:20:19;102028.72;;;-3.20;74.88
13593;BME280;6867;50.998;4.250;2022-12-18T09:22:48;102033.69;;;-2.99;74.64
13593;BME280;6867;50.998;4.250;2022-12-18T09:25:14;101998.31;;;-3.24;74.50
13593;BME280;6867;50.998;4.250;2022-12-18T09:27:41;102031.53;;;-2.93;74.96
13593;BME280;6867;50.998;4.250;2022-12-18T09:30:09;102017.97;;;-3.01;74.81
13593;BME280;6867;50.998;4.250;2022-12-18T09:32:36;102014.41;;;-2.84;74.67
13593;BME280;6867;50.998;4.250;2022-12-18T09:35:03;102004.25;;;-2.76;74.58
13593;BME280;6867;50.998;4.250;2022-12-18T09:37:29;102021.97;;;-2.49;74.39
13593;BME280;6867;50.998;4.250;2022-12-18T09:39:57;102013.13;;;-2.48;74.57
13593;BME280;6867;50.998;4.250;2022-12-18T09:42:24;102018.28;;;-2.47;74.30
13593;BME280;6867;50.998;4.250;2022-12-18T09:44:53;102040.41;;;-2.21;74.44
13593;BME280;6867;50.998;4.250;2022-12-18T09:47:23;102032.13;;;-2.15;74.49
13593;BME280;6867;50.998;4.250;2022-12-18T09:49:53;102041.72;;;-1.99;74.42
13593;BME280;6867;50.998;4.250;2022-12-18T09:52:25;102032.75;;;-1.97;74.25
13593;BME280;6867;50.998;4.250;2022-12-18T09:54:55;102050.50;;;-1.72;74.67
13593;BME280;6867;50.998;4.250;2022-12-18T09:57:25;102032.53;;;-1.65;74.23
13593;BME280;6867;50.998;4.250;2022-12-18T09:59:55;102018.41;;;-1.64;74.37
13593;BME280;6867;50.998;4.250;2022-12-18T10:02:25;101994.25;;;-1.71;74.12
13593;BME280;6867;50.998;4.250;2022-12-18T10:05:02;101999.81;;;-1.48;74.21
13593;BME280;6867;50.998;4.250;2022-12-18T10:07:39;101970.28;;;-1.81;73.71
13593;BME280;6867;50.998;4.250;2022-12-18T10:10:16;101981.41;;;-1.90;74.06
13593;BME280;6867;50.998;4.250;2022-12-18T10:12:51;101997.44;;;-1.66;74.25
13593;BME280;6867;50.998;4.250;2022-12-18T10:15:24;102015.22;;;-1.42;74.63
13593;BME280;6867;50.998;4.250;2022-12-18T10:18:00;102005.34;;;-1.39;74.41
13593;BME280;6867;50.998;4.250;2022-12-18T10:20:39;101988.81;;;-1.28;74.41
13593;BME280;6867;50.998;4.250;2022-12-18T10:23:13;101985.97;;;-1.38;74.22
13593;BME280;6867;50.998;4.250;2022-12-18T10:25:47;101998.75;;;-1.19;74.20
13593;BME280;6867;50.998;4.250;2022-12-18T10:28:19;101992.50;;;-1.31;74.30
13593;BME280;6867;50.998;4.250;2022-12-18T10:30:46;101987.81;;;-1.13;74.50
13593;BME280;6867;50.998;4.250;2022-12-18T10:33:18;101976.75;;;-1.05;74.18
13593;BME280;6867;50.998;4.250;2022-12-18T10:35:45;101975.69;;;-1.03;74.15
13593;BME280;6867;50.998;4.250;2022-12-18T10:38:24;101968.72;;;-1.16;74.62
13593;BME280;6867;50.998;4.250;2022-12-18T10:40:54;101971.59;;;-0.94;74.42
13593;BME280;6867;50.998;4.250;2022-12-18T10:43:24;101967.16;;;-0.93;74.41
13593;BME280;6867;50.998;4.250;2022-12-18T10:46:11;101972.03;;;-0.87;74.11
13593;BME280;6867;50.998;4.250;2022-12-18T10:48:47;101979.84;;;-0.73;74.59
13593;BME280;6867;50.998;4.250;2022-12-18T10:51:20;101966.44;;;-0.57;74.05
13593;BME280;6867;50.998;4.250;2022-12-18T10:53:52;101962.31;;;-0.48;73.70
13593;BME280;6867;50.998;4.250;2022-12-18T10:56:21;101948.50;;;-0.52;73.48
13593;BME280;6867;50.998;4.250;2022-12-18T10:58:57;101953.66;;;-0.25;73.51
13593;BME280;6867;50.998;4.250;2022-12-18T11:01:25;101949.38;;;-0.15;73.46
13593;BME280;6867;50.998;4.250;2022-12-18T11:04:01;101945.72;;;-0.25;73.45
13593;BME280;6867;50.998;4.250;2022-12-18T11:06:28;101938.41;;;-0.21;73.63
13593;BME280;6867;50.998;4.250;2022-12-18T11:09:00;101944.53;;;-0.08;72.99
13593;BME280;6867;50.998;4.250;2022-12-18T11:11:27;101950.09;;;0.00;73.33
13593;BME280;6867;50.998;4.250;2022-12-18T11:13:59;101952.13;;;0.20;73.03
13593;BME280;6867;50.998;4.250;2022-12-18T11:16:28;101962.34;;;0.38;73.91
13593;BME280;6867;50.998;4.250;2022-12-18T11:19:10;101956.72;;;0.42;73.33
13593;BME280;6867;50.998;4.250;2022-12-18T11:21:39;101956.72;;;0.42;73.47
13593;BME280;6867;50.998;4.250;2022-12-18T11:24:21;101967.56;;;0.51;73.16
13593;BME280;6867;50.998;4.250;2022-12-18T11:26:49;101950.78;;;0.39;73.31
13593;BME280;6867;50.998;4.250;2022-12-18T11:29:23;101964.00;;;0.63;73.19
13593;BME280;6867;50.998;4.250;2022-12-18T11:31:51;101947.19;;;0.64;73.32
13593;BME280;6867;50.998;4.250;2022-12-18T11:34:22;101954.03;;;0.66;73.38
13593;BME280;6867;50.998;4.250;2022-12-18T11:36:53;101966.81;;;0.72;73.42
13593;BME280;6867;50.998;4.250;2022-12-18T11:39:30;101997.28;;;0.89;73.52
13593;BME280;6867;50.998;4.250;2022-12-18T11:42:01;101996.81;;;0.95;73.58
13593;BME280;6867;50.998;4.250;2022-12-18T11:44:43;101997.69;;;1.07;73.98
13593;BME280;6867;50.998;4.250;2022-12-18T11:47:18;101985.44;;;1.06;74.03
13593;BME280;6867;50.998;4.250;2022-12-18T11:49:49;101978.81;;;1.01;74.07
13593;BME280;6867;50.998;4.250;2022-12-18T11:52:19;101987.94;;;1.08;74.33
13593;BME280;6867;50.998;4.250;2022-12-18T11:54:51;101971.81;;;0.99;74.07
13593;BME280;6867;50.998;4.250;2022-12-18T11:57:28;101967.88;;;1.05;74.15
13593;BME280;6867;50.998;4.250;2022-12-18T12:00:09;101962.94;;;1.12;74.03
13593;BME280;6867;50.998;4.250;2022-12-18T12:02:48;101923.09;;;0.91;73.30
13593;BME280;6867;50.998;4.250;2022-12-18T12:05:28;101944.06;;;1.05;73.89
13593;BME280;6867;50.998;4.250;2022-12-18T12:08:02;101935.78;;;1.10;73.82
13593;BME280;6867;50.998;4.250;2022-12-18T12:10:42;101935.06;;;1.19;73.62
13593;BME280;6867;50.998;4.250;2022-12-18T12:13:23;101942.75;;;1.33;74.22
13593;BME280;6867;50.998;4.250;2022-12-18T12:16:03;101921.00;;;1.18;73.12
13593;BME280;6867;50.998;4.250;2022-12-18T12:18:44;101932.53;;;1.29;73.60
13593;BME280;6867;50.998;4.250;2022-12-18T12:21:19;101919.06;;;1.32;73.68
13593;BME280;6867;50.998;4.250;2022-12-18T12:23:55;101929.69;;;1.43;73.79
13593;BME280;6867;50.998;4.250;2022-12-18T12:26:32;101950.47;;;1.59;73.94
13593;BME280;6867;50.998;4.250;2022-12-18T12:29:05;101952.78;;;1.63;74.04
13593;BME280;6867;50.998;4.250;2022-12-18T12:31:46;101944.59;;;1.66;73.86
13593;BME280;6867;50.998;4.250;2022-12-18T12:34:20;101931.34;;;1.66;73.92
13593;BME280;6867;50.998;4.250;2022-12-18T12:37:01;101907.41;;;1.57;73.58
13593;BME280;6867;50.998;4.250;2022-12-18T12:39:34;101900.66;;;1.53;73.88
13593;BME280;6867;50.998;4.250;2022-12-18T12:42:03;101900.06;;;1.60;73.42
13593;BME280;6867;50.998;4.250;2022-12-18T12:44:50;101913.31;;;1.71;74.18
13593;BME280;6867;50.998;4.250;2022-12-18T12:47:22;101908.00;;;1.71;74.24
13593;BME280;6867;50.998;4.250;2022-12-18T12:49:52;101912.78;;;1.66;74.11
13593;BME280;6867;50.998;4.250;2022-12-18T12:52:27;101916.66;;;1.73;74.20
13593;BME280;6867;50.998;4.250;2022-12-18T12:54:56;101895.00;;;1.68;73.96
13593;BME280;6867;50.998;4.250;2022-12-18T12:57:30;101899.41;;;1.79;73.91
13593;BME280;6867;50.998;4.250;2022-12-18T13:00:01;101892.44;;;1.89;74.09
13593;BME280;6867;50.998;4.250;2022-12-18T13:02:34;101899.28;;;1.92;73.78
13593;BME280;6867;50.998;4.250;2022-12-18T13:05:08;101911.06;;;1.99;74.11
13593;BME280;6867;50.998;4.250;2022-12-18T13:07:41;101906.38;;;2.03;74.23
13593;BME280;6867;50.998;4.250;2022-12-18T13:10:23;101912.13;;;2.08;74.25
13593;BME280;6867;50.998;4.250;2022-12-18T13:12:57;101912.25;;;2.17;74.16
13593;BME280;6867;50.998;4.250;2022-12-18T13:15:28;101894.31;;;2.10;73.97
13593;BME280;6867;50.998;4.250;2022-12-18T13:18:10;101889.94;;;2.09;74.29